TimeCDT,TemperatureF,Dew PointF,Humidity,Sea Level PressureIn,VisibilityMPH,Wind Direction,Wind SpeedMPH,Gust SpeedMPH,PrecipitationIn,Events,Conditions,WindDirDegrees,DateUTC
12:53 AM,72.0,61.0,68,29.96,10.0,Calm,Calm,-,N/A,,Clear,0,2013-07-14 05:53:00
1:53 AM,71.1,62.1,73,29.93,10.0,Calm,Calm,-,N/A,,Clear,0,2013-07-14 06:53:00
2:53 AM,68.0,62.1,81,29.93,10.0,Calm,Calm,-,N/A,,Clear,0,2013-07-14 07:53:00
3:53 AM,66.9,62.1,84,29.94,10.0,Calm,Calm,-,N/A,,Clear,0,2013-07-14 08:53:00
4:53 AM,64.0,62.1,93,29.96,7.0,Calm,Calm,-,N/A,,Clear,0,2013-07-14 09:53:00
5:53 AM,63.0,61.0,93,29.96,5.0,Calm,Calm,-,N/A,,Clear,0,2013-07-14 10:53:00
6:24 AM,62.6,60.8,94,29.98,2.5,Calm,Calm,-,N/A,,Clear,0,2013-07-14 11:24:00
6:46 AM,62.6,60.8,94,29.98,3.0,Calm,Calm,-,N/A,,Clear,0,2013-07-14 11:46:00
6:53 AM,62.1,60.1,93,29.96,3.0,Calm,Calm,-,N/A,,Clear,0,2013-07-14 11:53:00
7:53 AM,68.0,64.0,87,29.96,9.0,Calm,Calm,-,N/A,,Clear,0,2013-07-14 12:53:00
8:53 AM,75.9,62.1,62,29.98,10.0,Calm,Calm,-,N/A,,Clear,0,2013-07-14 13:53:00
9:53 AM,79.0,62.1,56,29.99,10.0,Variable,3.5,-,N/A,,Clear,0,2013-07-14 14:53:00
10:53 AM,81.0,60.1,49,29.99,10.0,SE,4.6,-,N/A,,Partly Cloudy,140,2013-07-14 15:53:00
11:53 AM,82.9,60.1,46,29.98,10.0,Calm,Calm,-,N/A,,Mostly Cloudy,0,2013-07-14 16:53:00
12:53 PM,87.1,60.1,40,29.97,10.0,Variable,4.6,-,N/A,,Clear,0,2013-07-14 17:53:00
1:53 PM,87.1,57.0,36,29.94,10.0,Variable,5.8,-,N/A,,Clear,0,2013-07-14 18:53:00
2:53 PM,87.1,55.0,33,29.93,10.0,Variable,3.5,-,N/A,,Scattered Clouds,0,2013-07-14 19:53:00
3:53 PM,84.9,60.1,43,29.95,10.0,ESE,5.8,-,N/A,,Clear,110,2013-07-14 20:53:00
4:53 PM,84.0,63.0,49,29.94,10.0,SE,3.5,-,N/A,,Scattered Clouds,130,2013-07-14 21:53:00
5:53 PM,82.9,64.9,54,29.93,10.0,Calm,Calm,-,N/A,,Clear,0,2013-07-14 22:53:00
6:53 PM,82.9,64.9,54,29.94,10.0,ESE,3.5,-,N/A,,Clear,120,2013-07-14 23:53:00
7:53 PM,75.9,59.0,56,29.96,10.0,Variable,3.5,-,N/A,,Partly Cloudy,0,2013-07-15 00:53:00
8:53 PM,73.0,57.9,59,29.96,10.0,Calm,Calm,-,N/A,,Clear,0,2013-07-15 01:53:00
9:53 PM,73.9,64.9,73,29.96,10.0,SE,3.5,-,N/A,,Clear,130,2013-07-15 02:53:00
10:53 PM,72.0,63.0,73,29.98,10.0,Calm,Calm,-,N/A,,Clear,0,2013-07-15 03:53:00
11:53 PM,72.0,66.0,81,29.99,10.0,Calm,Calm,-,N/A,,Partly Cloudy,0,2013-07-15 04:53:00